createdAt,value
2019-06-26T00:01:15.894Z,26.50
2019-06-26T00:06:24.267Z,29.00
2019-06-26T00:11:40.688Z,26.75
2019-06-26T00:16:46.066Z,27.50
2019-06-26T00:21:55.484Z,28.00
2019-06-26T00:27:06.077Z,27.75
2019-06-26T00:37:42.466Z,25.75
2019-06-26T00:42:57.056Z,26.00
2019-06-26T00:48:02.743Z,24.75
2019-06-26T00:53:13.700Z,23.25
2019-06-26T00:58:21.989Z,24.50
2019-06-26T01:03:30.307Z,24.75
2019-06-26T01:08:38.515Z,23.25
2019-06-26T01:13:57.695Z,23.25
2019-06-26T01:18:52.261Z,23.00
2019-06-26T01:23:56.027Z,23.25
2019-06-26T01:29:00.017Z,23.00
2019-06-26T01:34:04.026Z,23.75
2019-06-26T01:39:07.764Z,23.50
2019-06-26T01:44:15.361Z,21.50
2019-06-26T01:49:17.440Z,23.50
2019-06-26T01:54:21.121Z,23.00
2019-06-26T01:59:24.883Z,24.00
2019-06-26T02:04:28.654Z,24.00
2019-06-26T02:09:32.478Z,22.00
2019-06-26T02:14:36.175Z,22.50
2019-06-26T02:19:40.087Z,23.00
2019-06-26T02:24:43.922Z,23.75
2019-06-26T02:29:48.880Z,22.25
2019-06-26T02:34:52.614Z,22.00
2019-06-26T02:39:56.543Z,23.50
2019-06-26T02:45:00.758Z,22.25
2019-06-26T02:50:08.629Z,21.75
2019-06-26T02:55:12.740Z,23.00
2019-06-26T03:00:16.784Z,26.75
2019-06-26T03:05:20.453Z,23.00
2019-06-26T03:10:24.559Z,24.00
2019-06-26T03:15:28.312Z,23.25
2019-06-26T03:20:37.910Z,24.00
2019-06-26T03:25:41.771Z,18.75
2019-06-26T03:30:45.840Z,25.25
2019-06-26T03:35:49.577Z,24.00
2019-06-26T03:40:53.690Z,24.25
2019-06-26T03:45:57.487Z,24.00
2019-06-26T03:51:01.239Z,23.25
2019-06-26T03:56:05.043Z,24.00
2019-06-26T04:01:08.761Z,25.25
2019-06-26T04:06:12.951Z,24.00
2019-06-26T04:11:16.913Z,23.00
2019-06-26T04:16:20.702Z,24.00
2019-06-26T04:21:24.384Z,24.00
2019-06-26T04:26:28.272Z,23.25
2019-06-26T04:31:32.322Z,24.00
2019-06-26T04:36:36.058Z,23.25
2019-06-26T04:41:40.113Z,23.25
2019-06-26T04:46:43.806Z,22.75
2019-06-26T04:51:47.619Z,24.75
2019-06-26T04:56:51.303Z,23.25
2019-06-26T05:01:55.117Z,21.75
2019-06-26T05:06:58.902Z,22.75
2019-06-26T05:12:04.560Z,20.25
2019-06-26T05:17:09.510Z,23.00
2019-06-26T05:22:13.375Z,23.00
2019-06-26T05:27:17.089Z,22.00
2019-06-26T05:32:20.958Z,21.25
2019-06-26T05:37:24.945Z,22.00
2019-06-26T05:42:28.896Z,22.00
2019-06-26T05:47:32.584Z,22.25
2019-06-26T05:52:36.723Z,22.25
2019-06-26T05:57:41.915Z,22.00
2019-06-26T06:02:46.391Z,22.00
2019-06-26T06:07:50.254Z,21.50
2019-06-26T06:12:54.044Z,24.00
2019-06-26T06:17:57.927Z,23.50
2019-06-26T06:23:01.780Z,22.00
2019-06-26T06:28:05.558Z,22.25
2019-06-26T06:33:09.422Z,22.75
2019-06-26T06:38:13.195Z,23.00
2019-06-26T06:43:17.123Z,22.00
2019-06-26T06:48:22.393Z,23.50
2019-06-26T06:53:29.398Z,22.75
2019-06-26T06:59:10.032Z,21.75
2019-06-26T07:03:52.741Z,20.00
2019-06-26T07:09:27.327Z,22.00
2019-06-26T07:14:20.180Z,20.50
2019-06-26T07:19:23.946Z,21.75
2019-06-26T07:24:30.738Z,19.75
2019-06-26T07:29:44.083Z,21.25
2019-06-26T07:34:47.092Z,19.00
2019-06-26T07:39:51.029Z,19.75
2019-06-26T07:44:54.957Z,19.75
2019-06-26T07:49:58.771Z,19.50
2019-06-26T07:55:03.680Z,22.50
2019-06-26T08:00:08.916Z,18.75
2019-06-26T08:05:14.357Z,19.50
2019-06-26T08:10:18.661Z,19.50
2019-06-26T08:15:22.508Z,19.00
2019-06-26T08:20:26.433Z,15.25
2019-06-26T08:25:30.356Z,18.50
2019-06-26T08:30:34.049Z,19.75
2019-06-26T08:35:37.764Z,19.00
2019-06-26T08:40:41.600Z,18.25
2019-06-26T08:45:45.343Z,18.75
2019-06-26T08:50:49.046Z,17.00
2019-06-26T08:55:52.751Z,19.25
2019-06-26T09:00:56.861Z,20.25
2019-06-26T09:06:00.737Z,18.75
2019-06-26T09:11:04.544Z,19.00
2019-06-26T09:16:08.236Z,18.75
2019-06-26T09:21:11.931Z,20.50
2019-06-26T09:26:15.621Z,19.50
2019-06-26T09:31:19.609Z,20.25
2019-06-26T09:36:23.400Z,19.50
2019-06-26T09:41:27.167Z,21.75
2019-06-26T09:46:31.034Z,21.75
2019-06-26T09:51:34.835Z,18.50
2019-06-26T09:56:38.614Z,20.00
2019-06-26T10:01:42.584Z,19.75
2019-06-26T10:06:47.951Z,19.75
2019-06-26T10:11:53.482Z,21.00
2019-06-26T10:16:57.554Z,17.75
2019-06-26T10:22:01.261Z,20.75
2019-06-26T10:27:05.142Z,20.50
2019-06-26T10:32:08.895Z,18.25
2019-06-26T10:37:12.635Z,19.25
2019-06-26T10:42:16.457Z,18.50
2019-06-26T10:47:20.145Z,17.50
2019-06-26T10:52:23.907Z,18.25
2019-06-26T10:57:27.784Z,19.75
2019-06-26T11:02:31.709Z,19.75
2019-06-26T11:07:36.618Z,19.00
2019-06-26T11:12:40.727Z,19.75
2019-06-26T11:17:44.627Z,18.25
2019-06-26T11:22:48.900Z,19.25
2019-06-26T11:27:52.833Z,19.50
2019-06-26T11:32:56.531Z,19.75
2019-06-26T11:38:00.244Z,18.00
2019-06-26T11:43:04.097Z,18.75
2019-06-26T11:48:07.992Z,19.00
2019-06-26T11:53:11.710Z,19.75
2019-06-26T11:58:15.543Z,19.75
2019-06-26T12:03:19.407Z,19.00
2019-06-26T12:08:23.650Z,18.25
2019-06-26T12:13:27.470Z,19.00
2019-06-26T12:18:31.631Z,18.75
2019-06-26T12:23:35.588Z,21.25
2019-06-26T12:28:39.664Z,22.50
2019-06-26T12:33:43.752Z,22.25
2019-06-26T12:38:47.498Z,22.50
2019-06-26T12:43:51.368Z,20.75
2019-06-26T12:48:55.151Z,21.00
2019-06-26T12:53:58.817Z,21.25
2019-06-26T12:59:02.576Z,21.00
2019-06-26T13:04:06.362Z,19.25
2019-06-26T13:09:10.096Z,19.25
2019-06-26T13:14:13.880Z,20.25
2019-06-26T13:19:17.649Z,19.50
2019-06-26T13:24:21.381Z,18.50
2019-06-26T13:29:25.232Z,18.50
2019-06-26T13:34:28.943Z,18.75
2019-06-26T13:39:32.676Z,19.50
2019-06-26T13:44:36.447Z,15.50
2019-06-26T13:49:40.209Z,19.00
2019-06-26T13:54:44.088Z,17.50
2019-06-26T13:59:47.871Z,17.25
2019-06-26T14:04:51.597Z,18.50
2019-06-26T14:09:55.356Z,17.50
2019-06-26T14:14:59.298Z,16.75
2019-06-26T14:20:14.533Z,17.25
2019-06-26T14:25:18.345Z,17.25
2019-06-26T14:30:22.735Z,17.75
2019-06-26T14:35:26.577Z,17.25
2019-06-26T14:40:30.559Z,19.00
2019-06-26T14:45:34.391Z,17.75
2019-06-26T14:50:38.322Z,19.00
2019-06-26T14:55:42.293Z,17.50
2019-06-26T15:00:46.162Z,16.50
2019-06-26T15:05:50.197Z,17.00
2019-06-26T15:10:53.885Z,18.50
2019-06-26T15:15:57.720Z,18.50
2019-06-26T15:21:01.662Z,17.75
2019-06-26T15:26:05.616Z,18.50
2019-06-26T15:31:09.474Z,19.00
2019-06-26T15:36:13.154Z,20.50
2019-06-26T15:41:17.049Z,22.75
2019-06-26T15:46:20.745Z,19.00
2019-06-26T15:51:24.597Z,18.75
2019-06-26T15:56:28.358Z,20.50
2019-06-26T16:01:32.289Z,18.00
2019-06-26T16:06:36.407Z,19.50
2019-06-26T16:11:40.144Z,20.00
2019-06-26T16:16:43.899Z,20.00
2019-06-26T16:21:47.775Z,20.50
2019-06-26T16:26:51.470Z,19.50
2019-06-26T16:31:55.243Z,19.25
2019-06-26T16:36:59.187Z,18.50
2019-06-26T16:42:02.995Z,20.00
2019-06-26T16:47:06.711Z,21.50
2019-06-26T16:52:10.566Z,22.00
2019-06-26T16:57:14.326Z,21.50
2019-06-26T17:02:18.274Z,19.00
2019-06-26T17:07:22.123Z,19.50
2019-06-26T17:12:26.001Z,19.50
2019-06-26T17:17:29.772Z,19.75
2019-06-26T17:22:33.608Z,20.75
2019-06-26T17:27:37.479Z,22.00
2019-06-26T17:32:42.607Z,21.50
2019-06-26T17:37:46.646Z,21.00
2019-06-26T17:42:50.811Z,20.75
2019-06-26T17:47:54.633Z,21.25
2019-06-26T17:52:58.460Z,20.50
2019-06-26T17:58:02.139Z,21.00
2019-06-26T18:03:05.965Z,20.00
2019-06-26T18:08:09.884Z,21.00
2019-06-26T18:13:15.935Z,19.50
2019-06-26T18:18:19.732Z,20.50
2019-06-26T18:23:37.142Z,21.50
2019-06-26T18:28:30.626Z,20.50
2019-06-26T18:33:34.396Z,20.25
2019-06-26T18:38:41.759Z,21.00
2019-06-26T18:43:46.689Z,20.75
2019-06-26T18:48:50.755Z,21.50
2019-06-26T18:53:54.696Z,22.00
2019-06-26T18:58:58.663Z,22.00
2019-06-26T19:04:02.429Z,21.75
2019-06-26T19:09:06.597Z,22.25
2019-06-26T19:14:10.638Z,22.00
2019-06-26T19:19:14.514Z,24.00
2019-06-26T19:24:18.467Z,22.25
2019-06-26T19:29:22.386Z,21.75
2019-06-26T19:34:27.507Z,22.50
2019-06-26T19:39:31.522Z,23.50
2019-06-26T19:44:35.337Z,26.00
2019-06-26T19:49:39.293Z,25.25
2019-06-26T19:54:43.192Z,26.00
2019-06-26T19:59:47.292Z,25.00
2019-06-26T20:04:51.131Z,26.00
2019-06-26T20:09:55.029Z,24.00
2019-06-26T20:14:59.232Z,23.25
2019-06-26T20:20:05.387Z,24.25
2019-06-26T20:25:11.527Z,24.75
2019-06-26T20:30:15.764Z,24.75
2019-06-26T20:35:19.859Z,25.75
2019-06-26T20:40:23.831Z,24.50
2019-06-26T20:45:27.837Z,24.50
2019-06-26T20:50:31.663Z,23.50
2019-06-26T20:55:35.520Z,24.00
2019-06-26T21:00:39.797Z,25.00
2019-06-26T21:05:43.671Z,25.00
2019-06-26T21:10:47.391Z,23.50
2019-06-26T21:15:53.050Z,22.25
2019-06-26T21:20:56.595Z,23.00
2019-06-26T21:26:00.537Z,21.25
2019-06-26T21:31:04.307Z,22.50
2019-06-26T21:36:08.010Z,23.25
2019-06-26T21:41:11.985Z,23.00
2019-06-26T21:46:15.837Z,25.25
2019-06-26T21:51:19.905Z,24.50
2019-06-26T21:56:23.835Z,25.25
2019-06-26T22:01:45.540Z,24.25
2019-06-26T22:07:07.371Z,25.00
2019-06-26T22:12:15.867Z,23.25
2019-06-26T22:17:20.934Z,27.00
2019-06-26T22:22:24.912Z,27.00
2019-06-26T22:27:29.006Z,26.75
2019-06-26T22:32:32.856Z,26.75
2019-06-26T22:37:36.804Z,25.75
2019-06-26T22:42:41.012Z,24.50
2019-06-26T22:47:45.266Z,26.75
2019-06-26T22:52:49.091Z,25.00
2019-06-26T22:57:52.987Z,27.25
2019-06-26T23:02:56.831Z,25.75
2019-06-26T23:08:00.582Z,25.50
2019-06-26T23:13:04.309Z,26.00
2019-06-26T23:18:08.026Z,24.75
2019-06-26T23:23:11.806Z,27.25
2019-06-26T23:28:15.587Z,26.00
2019-06-26T23:33:19.255Z,26.50
2019-06-26T23:38:23.144Z,26.00
2019-06-26T23:43:26.913Z,28.00
2019-06-26T23:48:30.673Z,25.25
2019-06-26T23:53:34.430Z,27.00
2019-06-26T23:58:38.148Z,26.50
